createdAt,value
2022-08-17T00:00:35.030Z,56.70
2022-08-17T00:03:08.799Z,56.60
2022-08-17T00:05:43.643Z,56.60
2022-08-17T00:08:12.219Z,56.70
2022-08-17T00:10:40.910Z,56.70
2022-08-17T00:13:11.232Z,56.70
2022-08-17T00:15:39.737Z,56.60
2022-08-17T00:19:01.060Z,56.70
2022-08-17T00:20:58.815Z,56.70
2022-08-17T00:23:26.852Z,56.70
2022-08-17T00:25:55.334Z,56.70
2022-08-17T00:28:23.686Z,56.70
2022-08-17T00:30:53.810Z,56.70
2022-08-17T00:33:26.046Z,56.70
2022-08-17T00:35:54.887Z,56.70
2022-08-17T00:38:25.231Z,56.80
2022-08-17T00:40:55.796Z,56.70
2022-08-17T00:43:31.821Z,56.80
2022-08-17T00:46:01.877Z,56.70
2022-08-17T00:48:33.142Z,56.70
2022-08-17T00:51:08.050Z,56.70
2022-08-17T00:53:46.252Z,56.80
2022-08-17T00:56:21.682Z,56.70
2022-08-17T00:58:53.035Z,56.80
2022-08-17T01:01:22.179Z,56.70
2022-08-17T01:03:52.510Z,56.70
2022-08-17T01:06:22.438Z,56.70
2022-08-17T01:08:57.781Z,56.80
2022-08-17T01:11:26.380Z,56.70
2022-08-17T01:13:54.872Z,56.80
2022-08-17T01:16:26.122Z,56.80
2022-08-17T01:18:58.107Z,56.80
2022-08-17T01:21:32.498Z,56.70
2022-08-17T01:24:03.051Z,56.80
2022-08-17T01:26:34.184Z,56.80
2022-08-17T01:29:04.129Z,56.80
2022-08-17T01:31:36.340Z,56.80
2022-08-17T01:34:09.147Z,56.80
2022-08-17T01:36:38.301Z,56.70
2022-08-17T01:39:10.553Z,56.70
2022-08-17T01:41:41.520Z,56.80
2022-08-17T01:44:11.635Z,56.80
2022-08-17T01:46:39.822Z,56.80
2022-08-17T01:49:11.062Z,56.80
2022-08-17T01:51:40.100Z,56.80
2022-08-17T01:54:13.718Z,56.80
2022-08-17T01:56:47.203Z,56.80
2022-08-17T01:59:16.831Z,56.80
2022-08-17T02:01:45.849Z,56.70
2022-08-17T02:04:14.553Z,56.80
2022-08-17T02:06:52.501Z,56.80
2022-08-17T02:09:25.645Z,56.80
2022-08-17T02:11:54.696Z,56.80
2022-08-17T02:14:23.626Z,56.70
2022-08-17T02:16:51.883Z,56.80
2022-08-17T02:19:21.935Z,56.80
2022-08-17T02:21:52.644Z,56.80
2022-08-17T02:25:00.983Z,56.80
2022-08-17T02:27:12.815Z,56.80
2022-08-17T02:29:41.079Z,56.80
2022-08-17T02:32:20.730Z,56.80
2022-08-17T02:34:56.524Z,56.80
2022-08-17T02:37:24.739Z,56.80
2022-08-17T02:39:52.993Z,56.80
2022-08-17T02:42:27.845Z,56.90
2022-08-17T02:44:56.305Z,56.80
2022-08-17T02:47:25.134Z,56.80
2022-08-17T02:49:55.531Z,56.80
2022-08-17T02:52:43.799Z,56.80
2022-08-17T02:55:15.834Z,56.80
2022-08-17T02:57:45.934Z,56.80
2022-08-17T03:00:18.651Z,56.80
2022-08-17T03:02:47.251Z,56.80
2022-08-17T03:05:18.054Z,56.80
2022-08-17T03:07:46.298Z,56.80
2022-08-17T03:10:15.246Z,56.80
2022-08-17T03:12:46.309Z,56.80
2022-08-17T03:15:16.767Z,56.80
2022-08-17T03:17:45.253Z,56.80
2022-08-17T03:20:16.064Z,56.80
2022-08-17T03:22:48.101Z,56.90
2022-08-17T03:25:24.098Z,56.80
2022-08-17T03:27:54.151Z,56.80
2022-08-17T03:30:23.854Z,56.80
2022-08-17T03:32:54.699Z,56.80
2022-08-17T03:35:25.893Z,56.80
2022-08-17T03:38:00.837Z,56.80
2022-08-17T03:40:39.894Z,56.80
2022-08-17T03:43:21.224Z,56.80
2022-08-17T03:46:11.089Z,56.80
2022-08-17T03:49:13.326Z,56.80
2022-08-17T03:51:59.369Z,56.80
2022-08-17T03:54:44.980Z,56.80
2022-08-17T03:57:13.510Z,56.80
2022-08-17T03:59:43.091Z,56.80
2022-08-17T04:02:18.634Z,56.80
2022-08-17T04:04:50.727Z,56.90
2022-08-17T04:07:19.472Z,56.90
2022-08-17T04:09:47.638Z,56.80
2022-08-17T04:12:16.934Z,56.90
2022-08-17T04:14:53.107Z,56.80
2022-08-17T04:17:24.198Z,56.80
2022-08-17T04:19:52.528Z,56.80
2022-08-17T04:22:30.557Z,56.80
2022-08-17T04:25:04.980Z,56.80
2022-08-17T04:27:33.102Z,56.80
2022-08-17T04:30:02.975Z,56.80
2022-08-17T04:33:02.897Z,56.70
2022-08-17T04:35:21.197Z,56.70
2022-08-17T04:37:49.440Z,56.70
2022-08-17T04:40:35.591Z,56.80
2022-08-17T04:43:05.493Z,56.80
2022-08-17T04:45:35.641Z,56.70
2022-08-17T04:48:04.492Z,56.70
2022-08-17T04:50:32.598Z,56.70
2022-08-17T04:53:01.102Z,56.60
2022-08-17T04:55:29.595Z,56.70
2022-08-17T04:57:57.717Z,56.70
2022-08-17T05:00:26.157Z,56.60
2022-08-17T05:02:57.331Z,56.60
2022-08-17T05:05:31.844Z,56.60
2022-08-17T05:08:04.150Z,56.60
2022-08-17T05:10:37.067Z,56.50
2022-08-17T05:13:16.518Z,56.50
2022-08-17T05:15:48.179Z,56.50
2022-08-17T05:18:18.824Z,56.50
2022-08-17T05:20:47.143Z,56.40
2022-08-17T05:23:18.467Z,56.40
2022-08-17T05:25:48.711Z,56.30
2022-08-17T05:28:24.048Z,56.30
2022-08-17T05:30:56.378Z,56.30
2022-08-17T05:33:28.843Z,56.20
2022-08-17T05:35:58.830Z,56.20
2022-08-17T05:38:28.822Z,56.20
2022-08-17T05:40:57.176Z,56.20
2022-08-17T05:43:27.271Z,56.20
2022-08-17T05:46:00.889Z,56.20
2022-08-17T05:48:36.754Z,56.20
2022-08-17T05:51:28.685Z,56.10
2022-08-17T05:54:08.335Z,56.10
2022-08-17T05:56:52.277Z,56.10
2022-08-17T05:59:29.752Z,56.10
2022-08-17T06:02:06.489Z,56.10
2022-08-17T06:04:51.979Z,56.10
2022-08-17T06:07:25.709Z,56.10
2022-08-17T06:10:02.343Z,56.10
2022-08-17T06:12:41.316Z,56.10
2022-08-17T06:15:24.991Z,56.00
2022-08-17T06:17:56.845Z,56.10
2022-08-17T06:20:28.336Z,56.10
2022-08-17T06:23:11.491Z,56.00
2022-08-17T06:25:46.378Z,56.00
2022-08-17T06:28:18.262Z,56.00
2022-08-17T06:30:59.743Z,56.00
2022-08-17T06:33:34.351Z,56.00
2022-08-17T06:36:16.211Z,56.00
2022-08-17T06:38:53.282Z,56.00
2022-08-17T06:41:27.573Z,56.20
2022-08-17T06:44:07.372Z,56.10
2022-08-17T06:46:40.065Z,56.20
2022-08-17T06:49:19.820Z,56.80
2022-08-17T06:51:52.979Z,56.30
2022-08-17T06:54:27.479Z,56.30
2022-08-17T06:57:03.355Z,56.20
2022-08-17T06:59:55.295Z,56.30
2022-08-17T07:02:53.288Z,56.30
2022-08-17T07:05:25.311Z,56.30
2022-08-17T07:08:05.150Z,56.40
2022-08-17T07:10:42.707Z,56.50
2022-08-17T07:13:29.383Z,56.50
2022-08-17T07:16:07.602Z,56.50
2022-08-17T07:18:35.797Z,56.50
2022-08-17T07:21:17.343Z,56.50
2022-08-17T07:24:03.385Z,56.60
2022-08-17T07:26:31.674Z,56.60
2022-08-17T07:29:02.340Z,56.60
2022-08-17T07:31:33.725Z,56.70
2022-08-17T07:34:11.027Z,56.80
2022-08-17T07:36:39.236Z,56.80
2022-08-17T07:39:09.402Z,56.80
2022-08-17T07:41:53.047Z,56.80
2022-08-17T07:44:25.899Z,56.90
2022-08-17T07:47:12.901Z,56.90
2022-08-17T07:49:44.696Z,56.90
2022-08-17T07:52:51.973Z,57.10
2022-08-17T07:55:32.001Z,57.10
2022-08-17T07:58:00.861Z,57.20
2022-08-17T08:00:32.756Z,57.10
2022-08-17T08:03:27.313Z,57.10
2022-08-17T08:06:00.286Z,57.20
2022-08-17T08:08:34.229Z,57.30
2022-08-17T08:11:08.835Z,57.30
2022-08-17T08:13:42.751Z,57.30
2022-08-17T08:16:23.865Z,57.30
2022-08-17T08:18:56.770Z,57.40
2022-08-17T08:21:34.367Z,57.40
2022-08-17T08:24:37.764Z,57.50
2022-08-17T08:27:21.012Z,57.60
2022-08-17T08:29:55.143Z,57.70
2022-08-17T08:32:34.015Z,57.70
2022-08-17T08:35:07.961Z,57.80
2022-08-17T08:37:48.211Z,57.90
2022-08-17T08:40:33.342Z,58.00
2022-08-17T08:43:18.861Z,58.10
2022-08-17T08:45:56.522Z,58.20
2022-08-17T08:48:56.476Z,58.30
2022-08-17T08:51:37.777Z,58.40
2022-08-17T08:54:17.707Z,58.40
2022-08-17T08:57:23.162Z,58.50
2022-08-17T09:00:12.789Z,58.50
2022-08-17T09:03:02.940Z,58.60
2022-08-17T09:05:43.564Z,58.60
2022-08-17T09:08:16.363Z,58.70
2022-08-17T09:10:58.355Z,58.80
2022-08-17T09:13:36.991Z,58.80
2022-08-17T09:16:15.313Z,58.80
2022-08-17T09:19:00.665Z,58.90
2022-08-17T09:21:45.784Z,58.90
2022-08-17T09:24:25.009Z,58.90
2022-08-17T09:27:00.028Z,58.90
2022-08-17T09:29:35.154Z,59.00
2022-08-17T09:32:10.685Z,59.00
2022-08-17T09:34:44.651Z,59.10
2022-08-17T09:37:23.249Z,59.10
2022-08-17T09:39:59.405Z,59.20
2022-08-17T09:42:32.349Z,59.20
2022-08-17T09:45:10.960Z,59.30
2022-08-17T09:47:46.653Z,59.30
2022-08-17T09:51:01.624Z,59.30
2022-08-17T09:53:10.480Z,59.30
2022-08-17T09:56:01.215Z,59.40
2022-08-17T09:58:34.728Z,59.40
2022-08-17T10:01:06.672Z,59.50
2022-08-17T10:04:01.046Z,59.40
2022-08-17T10:06:33.659Z,59.50
2022-08-17T10:09:08.842Z,59.50
2022-08-17T10:12:00.354Z,59.50
2022-08-17T10:14:37.395Z,59.50
2022-08-17T10:17:19.200Z,59.70
2022-08-17T10:19:59.731Z,59.70
2022-08-17T10:22:53.397Z,60.40
2022-08-17T10:25:54.790Z,59.80
2022-08-17T10:28:29.496Z,59.90
2022-08-17T10:31:30.787Z,60.00
2022-08-17T10:34:22.901Z,60.00
2022-08-17T10:37:00.302Z,60.00
2022-08-17T10:39:35.552Z,60.10
2022-08-17T10:42:32.908Z,60.10
2022-08-17T10:45:06.093Z,60.70
2022-08-17T10:48:04.637Z,60.10
2022-08-17T10:50:50.377Z,60.20
2022-08-17T10:53:55.464Z,60.20
2022-08-17T10:56:41.542Z,60.30
2022-08-17T10:59:10.216Z,60.30
2022-08-17T11:02:12.264Z,60.50
2022-08-17T11:04:55.887Z,60.50
2022-08-17T11:07:45.826Z,60.50
2022-08-17T11:10:32.490Z,60.50
2022-08-17T11:13:09.516Z,60.50
2022-08-17T11:15:58.758Z,60.60
2022-08-17T11:18:45.499Z,60.70
2022-08-17T11:21:41.719Z,60.70
2022-08-17T11:24:22.137Z,60.70
2022-08-17T11:27:04.769Z,60.70
2022-08-17T11:29:38.691Z,60.70
2022-08-17T11:32:13.382Z,60.70
2022-08-17T11:34:44.668Z,60.80
2022-08-17T11:37:32.043Z,60.80
2022-08-17T11:40:32.847Z,60.80
2022-08-17T11:43:16.501Z,60.90
2022-08-17T11:46:04.037Z,60.90
2022-08-17T11:48:57.151Z,60.90
2022-08-17T11:51:46.530Z,60.90
2022-08-17T11:54:40.475Z,60.90
2022-08-17T11:58:02.604Z,60.90
2022-08-17T12:01:00.042Z,61.00
2022-08-17T12:03:55.492Z,61.00
2022-08-17T12:06:45.975Z,61.10
2022-08-17T12:09:19.085Z,61.10
2022-08-17T12:12:11.728Z,61.10
2022-08-17T12:17:41.272Z,61.20
2022-08-17T12:20:15.072Z,61.20
2022-08-17T12:22:53.742Z,61.20
2022-08-17T12:25:33.198Z,61.20
2022-08-17T12:28:06.688Z,61.20
2022-08-17T12:30:37.191Z,61.30
2022-08-17T12:33:25.802Z,61.30
2022-08-17T12:36:03.064Z,61.30
2022-08-17T12:38:35.003Z,61.30
2022-08-17T12:41:26.426Z,61.30
2022-08-17T12:44:01.517Z,61.40
2022-08-17T12:46:33.471Z,61.40
2022-08-17T12:49:20.136Z,61.40
2022-08-17T12:51:48.989Z,61.50
2022-08-17T12:54:33.650Z,61.50
2022-08-17T12:57:07.388Z,61.70
2022-08-17T12:59:40.796Z,61.60
2022-08-17T13:02:19.227Z,61.60
2022-08-17T13:04:49.028Z,61.50
2022-08-17T13:07:28.195Z,61.50
2022-08-17T13:09:56.585Z,61.50
2022-08-17T13:12:29.646Z,61.60
2022-08-17T13:14:58.152Z,61.50
2022-08-17T13:17:32.617Z,61.60
2022-08-17T13:20:03.910Z,61.60
2022-08-17T13:22:32.699Z,61.60
2022-08-17T13:25:05.525Z,61.60
2022-08-17T13:27:34.947Z,61.70
2022-08-17T13:30:08.508Z,61.70
2022-08-17T13:32:43.776Z,61.70
2022-08-17T13:35:40.528Z,61.60
2022-08-17T13:38:12.383Z,61.70
2022-08-17T13:40:44.754Z,61.60
2022-08-17T13:43:13.356Z,61.70
2022-08-17T13:45:50.381Z,61.70
2022-08-17T13:48:28.827Z,61.70
2022-08-17T13:51:15.112Z,61.70
2022-08-17T13:54:03.604Z,61.70
2022-08-17T13:56:39.641Z,61.70
2022-08-17T13:59:12.392Z,62.40
2022-08-17T14:01:43.626Z,61.80
2022-08-17T14:04:13.938Z,61.70
2022-08-17T14:06:54.119Z,61.70
2022-08-17T14:09:26.578Z,61.70
2022-08-17T14:11:56.591Z,61.70
2022-08-17T14:14:25.115Z,61.70
2022-08-17T14:16:53.920Z,61.60
2022-08-17T14:19:22.944Z,61.60
2022-08-17T14:21:56.473Z,62.30
2022-08-17T14:24:27.596Z,61.60
2022-08-17T14:26:55.968Z,61.60
2022-08-17T14:29:25.979Z,61.70
2022-08-17T14:31:54.718Z,61.70
2022-08-17T14:34:23.564Z,61.80
2022-08-17T14:36:53.558Z,61.80
2022-08-17T14:39:21.972Z,61.70
2022-08-17T14:41:50.687Z,61.70
2022-08-17T14:44:18.947Z,61.70
2022-08-17T14:46:48.009Z,61.70
2022-08-17T14:49:16.230Z,61.70
2022-08-17T14:51:44.819Z,61.60
2022-08-17T14:54:33.566Z,61.60
2022-08-17T14:57:26.076Z,61.60
2022-08-17T14:59:54.550Z,61.60
2022-08-17T15:02:30.202Z,61.60
2022-08-17T15:05:03.105Z,61.60
2022-08-17T15:07:31.807Z,61.60
2022-08-17T15:10:02.066Z,61.50
2022-08-17T15:12:33.153Z,61.50
2022-08-17T15:15:04.946Z,61.50
2022-08-17T15:17:44.961Z,61.50
2022-08-17T15:20:24.149Z,61.50
2022-08-17T15:22:55.171Z,61.50
2022-08-17T15:25:26.037Z,61.50
2022-08-17T15:27:55.888Z,61.60
2022-08-17T15:30:25.693Z,61.50
2022-08-17T15:32:55.463Z,61.50
2022-08-17T15:35:27.498Z,61.50
2022-08-17T15:37:57.837Z,61.50
2022-08-17T15:40:27.470Z,61.50
2022-08-17T15:42:57.859Z,61.50
2022-08-17T15:45:28.280Z,61.40
2022-08-17T15:47:56.425Z,61.50
2022-08-17T15:50:24.592Z,61.50
2022-08-17T15:52:57.954Z,61.50
2022-08-17T15:55:29.080Z,61.40
2022-08-17T15:57:57.236Z,61.40
2022-08-17T16:00:26.062Z,61.40
2022-08-17T16:03:46.394Z,61.40
2022-08-17T16:05:42.792Z,61.30
2022-08-17T16:08:11.475Z,61.40
2022-08-17T16:10:41.008Z,61.30
2022-08-17T16:13:17.669Z,61.30
2022-08-17T16:15:54.837Z,61.30
2022-08-17T16:18:28.274Z,61.30
2022-08-17T16:20:56.631Z,61.20
2022-08-17T16:23:25.041Z,61.30
2022-08-17T16:25:54.686Z,61.20
2022-08-17T16:28:23.263Z,61.20
2022-08-17T16:31:05.704Z,61.20
2022-08-17T16:33:37.668Z,61.20
2022-08-17T16:36:07.232Z,61.20
2022-08-17T16:38:35.814Z,61.10
2022-08-17T16:41:06.105Z,61.10
2022-08-17T16:43:35.251Z,61.20
2022-08-17T16:46:03.627Z,61.20
2022-08-17T16:48:31.802Z,61.10
2022-08-17T16:51:03.288Z,61.20
2022-08-17T16:53:32.974Z,61.20
2022-08-17T16:56:01.095Z,61.20
2022-08-17T16:58:30.660Z,61.20
2022-08-17T17:00:59.619Z,61.10
2022-08-17T17:03:30.180Z,61.10
2022-08-17T17:06:08.327Z,61.10
2022-08-17T17:08:44.546Z,61.10
2022-08-17T17:11:19.368Z,61.10
2022-08-17T17:13:54.024Z,61.10
2022-08-17T17:16:31.888Z,61.10
2022-08-17T17:19:10.415Z,61.10
2022-08-17T17:21:44.287Z,61.10
2022-08-17T17:24:17.939Z,61.10
2022-08-17T17:27:11.804Z,61.10
2022-08-17T17:29:52.737Z,61.10
2022-08-17T17:32:27.352Z,61.10
2022-08-17T17:35:04.948Z,61.10
2022-08-17T17:37:36.336Z,61.80
2022-08-17T17:40:10.538Z,61.10
2022-08-17T17:42:41.952Z,61.10
2022-08-17T17:45:18.265Z,61.10
2022-08-17T17:47:47.124Z,61.10
2022-08-17T17:50:17.994Z,61.10
2022-08-17T17:52:51.974Z,61.10
2022-08-17T17:55:38.424Z,61.10
2022-08-17T17:58:31.146Z,61.10
2022-08-17T18:01:15.953Z,61.10
2022-08-17T18:03:59.070Z,61.10
2022-08-17T18:06:35.531Z,61.10
2022-08-17T18:09:17.990Z,61.20
2022-08-17T18:12:09.818Z,61.20
2022-08-17T18:14:55.927Z,61.20
2022-08-17T18:17:25.502Z,61.10
2022-08-17T18:19:56.017Z,61.20
2022-08-17T18:22:25.644Z,61.10
2022-08-17T18:24:56.423Z,61.10
2022-08-17T18:27:32.198Z,61.20
2022-08-17T18:30:07.121Z,61.10
2022-08-17T18:32:40.803Z,61.20
2022-08-17T18:35:35.078Z,61.20
2022-08-17T18:38:23.196Z,61.20
2022-08-17T18:41:09.171Z,61.20
2022-08-17T18:43:53.179Z,61.20
2022-08-17T18:46:30.676Z,61.20
2022-08-17T18:49:02.147Z,61.20
2022-08-17T18:51:41.577Z,61.20
2022-08-17T18:54:22.348Z,61.20
2022-08-17T18:56:53.475Z,61.30
2022-08-17T18:59:39.899Z,61.30
2022-08-17T19:02:44.126Z,61.30
2022-08-17T19:05:29.985Z,61.30
2022-08-17T19:08:19.717Z,61.30
2022-08-17T19:10:49.869Z,61.30
2022-08-17T19:13:24.576Z,61.30
2022-08-17T19:16:13.163Z,61.30
2022-08-17T19:18:47.452Z,61.30
2022-08-17T19:21:22.242Z,61.30
2022-08-17T19:23:54.889Z,61.30
2022-08-17T19:26:50.714Z,61.30
2022-08-17T19:29:22.290Z,61.30
2022-08-17T19:31:51.051Z,61.30
2022-08-17T19:34:30.057Z,61.30
2022-08-17T19:37:08.933Z,61.30
2022-08-17T19:39:47.388Z,61.30
2022-08-17T19:42:28.452Z,61.30
2022-08-17T19:45:03.015Z,61.30
2022-08-17T19:47:56.477Z,61.30
2022-08-17T19:50:38.263Z,61.30
2022-08-17T19:53:17.606Z,61.30
2022-08-17T19:55:54.994Z,61.30
2022-08-17T19:58:43.271Z,61.30
2022-08-17T20:01:19.904Z,61.30
2022-08-17T20:03:57.346Z,61.30
2022-08-17T20:06:29.833Z,61.30
2022-08-17T20:09:14.955Z,61.30
2022-08-17T20:11:47.699Z,61.30
2022-08-17T20:14:19.855Z,61.30
2022-08-17T20:16:48.310Z,61.30
2022-08-17T20:19:25.170Z,61.30
2022-08-17T20:21:58.594Z,61.30
2022-08-17T20:24:36.160Z,61.30
2022-08-17T20:27:15.417Z,61.30
2022-08-17T20:30:09.268Z,61.30
2022-08-17T20:32:52.581Z,61.40
2022-08-17T20:35:25.588Z,61.40
2022-08-17T20:37:57.872Z,61.40
2022-08-17T20:40:35.169Z,61.40
2022-08-17T20:43:37.509Z,61.40
2022-08-17T20:46:17.565Z,61.40
2022-08-17T20:48:48.989Z,61.40
2022-08-17T20:51:27.103Z,61.30
2022-08-17T20:54:08.676Z,61.40
2022-08-17T20:57:00.421Z,61.50
2022-08-17T20:59:56.376Z,61.40
2022-08-17T21:02:26.619Z,61.50
2022-08-17T21:05:32.288Z,61.40
2022-08-17T21:08:16.565Z,61.50
2022-08-17T21:10:46.843Z,61.40
2022-08-17T21:13:41.920Z,61.40
2022-08-17T21:16:29.275Z,61.40
2022-08-17T21:19:16.913Z,61.50
2022-08-17T21:21:58.220Z,61.50
2022-08-17T21:24:37.360Z,61.40
2022-08-17T21:27:21.275Z,61.50
2022-08-17T21:30:15.093Z,61.50
2022-08-17T21:32:45.328Z,61.50
2022-08-17T21:35:26.742Z,61.50
2022-08-17T21:38:02.360Z,61.50
2022-08-17T21:40:32.858Z,61.50
2022-08-17T21:43:16.873Z,61.50
2022-08-17T21:45:57.674Z,61.50
2022-08-17T21:48:28.574Z,61.50
2022-08-17T21:51:04.333Z,61.50
2022-08-17T21:53:40.412Z,61.50
2022-08-17T21:56:10.936Z,61.50
2022-08-17T21:58:45.434Z,61.50
2022-08-17T22:01:27.075Z,61.50
2022-08-17T22:04:04.391Z,61.50
2022-08-17T22:06:39.155Z,61.50
2022-08-17T22:09:14.838Z,61.50
2022-08-17T22:11:54.335Z,61.50
2022-08-17T22:14:25.681Z,61.60
2022-08-17T22:17:17.770Z,61.60
2022-08-17T22:19:49.081Z,61.60
2022-08-17T22:22:33.781Z,61.60
2022-08-17T22:25:05.892Z,61.60
2022-08-17T22:27:54.445Z,61.60
2022-08-17T22:30:35.500Z,61.60
2022-08-17T22:33:37.235Z,61.60
2022-08-17T22:36:29.203Z,61.60
2022-08-17T22:38:59.325Z,61.50
2022-08-17T22:41:53.940Z,61.60
2022-08-17T22:44:29.467Z,61.60
2022-08-17T22:47:11.315Z,61.60
2022-08-17T22:49:53.752Z,61.60
2022-08-17T22:52:32.964Z,61.60
2022-08-17T22:55:23.920Z,61.60
2022-08-17T22:58:09.341Z,61.60
2022-08-17T23:00:40.621Z,61.60
2022-08-17T23:03:13.730Z,61.70
2022-08-17T23:05:45.516Z,61.60
2022-08-17T23:08:13.890Z,61.60
2022-08-17T23:10:42.682Z,61.70
2022-08-17T23:13:12.778Z,61.60
2022-08-17T23:15:41.707Z,61.60
2022-08-17T23:18:09.872Z,61.70
2022-08-17T23:20:40.775Z,61.60
2022-08-17T23:23:11.855Z,61.60
2022-08-17T23:25:40.033Z,61.70
2022-08-17T23:28:08.456Z,61.60
2022-08-17T23:30:39.982Z,61.60
2022-08-17T23:33:14.234Z,61.60
2022-08-17T23:35:42.845Z,61.70
2022-08-17T23:38:13.592Z,61.70
2022-08-17T23:40:42.293Z,61.70
2022-08-17T23:43:23.992Z,61.70
2022-08-17T23:45:54.137Z,61.70
2022-08-17T23:48:28.408Z,61.70
2022-08-17T23:51:09.114Z,61.70
2022-08-17T23:53:44.073Z,61.70
2022-08-17T23:56:12.258Z,61.70
2022-08-17T23:58:42.093Z,61.70
